Draughon Miller Central Texas Regional Airport
KTPL : now visible

Airfield :











YOU CAN JOIN US ON...

 
LOGIN :

Register | Disclaimer

   EN    FR    IT 

 









Legend :    VFR   Marginal VFR   IFR   Intensive IFR   Very Intensive IFR
Visi :
Ceiling :
>= 8 km
>= 3000ft
5 to 8 km
1000 to 3000 ft
1500m to 5 km
500 to 1000 ft
800 to 1500m
200 to 500 ft
< 800m
< 200 ft
Symbols :   Thunderstorms  Fog  Heavy snow  Heavy precipitations  Wind > 20 kt






- Airport Elevation : 682 ft
- IATA code : TPL


KTPL - Draughon Miller Central Texas Regional

CURRENT METAR :
  • 090251Z AUTO 19011KT 10SM CLR 18/13 A2985 RMK AO2 SLP101 T01780128 58008

EXPIRED METARs :
  • 090151Z AUTO 18007KT 10SM CLR 18/12 A2988 RMK AO2 SLP111 T01780122
  • 090051Z AUTO 17008KT 10SM CLR 17/12 A2987 RMK AO2 SLP110 T01720122

TAF N/A



MET'MAP, your aeronautical weather chart ! - Copyright ORBIFLY December 2007 - Disclaimer

ORBIFLY MET'MAP TEAM :

Programming & Development : Alexandra Zaïnal
Concept & original design : Baudouin d'Aumeries
Assistance for programming : Marc-Olivier Méhu
Technical & hardware support : Manuel Goepfert

Contact : metmap@orbifly.com




SOURCES & CREDITS :

   NOAA       Earth
Advisory